createdAt,value
2016-06-02T00:00:17.423Z,19.21
2016-06-02T00:01:17.316Z,19.22
2016-06-02T00:02:17.491Z,19.23
2016-06-02T00:03:17.525Z,19.18
2016-06-02T00:04:17.543Z,19.18
2016-06-02T00:05:17.562Z,19.18
2016-06-02T00:06:17.579Z,19.26
2016-06-02T00:07:17.614Z,19.18
2016-06-02T00:08:17.648Z,19.19
2016-06-02T00:09:18.088Z,19.21
2016-06-02T00:10:17.716Z,19.21
2016-06-02T00:11:17.718Z,19.16
2016-06-02T00:12:17.736Z,19.14
2016-06-02T00:13:17.771Z,19.21
2016-06-02T00:14:17.789Z,19.18
2016-06-02T00:15:17.823Z,19.18
2016-06-02T00:16:17.684Z,19.23
2016-06-02T00:17:17.734Z,19.23
2016-06-02T00:18:17.894Z,19.19
2016-06-02T00:19:17.928Z,19.18
2016-06-02T00:20:17.945Z,19.11
2016-06-02T00:21:17.980Z,19.18
2016-06-02T00:22:18.014Z,19.19
2016-06-02T00:23:18.016Z,19.18
2016-06-02T00:24:18.050Z,19.08
2016-06-02T00:25:17.928Z,19.18
2016-06-02T00:26:18.102Z,19.18
2016-06-02T00:27:17.980Z,19.16
2016-06-02T00:28:18.155Z,19.22
2016-06-02T00:29:18.173Z,19.16
2016-06-02T00:30:18.208Z,19.18
2016-06-02T00:31:18.225Z,19.18
2016-06-02T00:32:18.274Z,19.14
2016-06-02T00:33:18.262Z,19.16
2016-06-02T00:34:18.296Z,19.19
2016-06-02T00:35:18.174Z,19.11
2016-06-02T00:36:18.348Z,19.16
2016-06-02T00:37:19.445Z,19.16
2016-06-02T00:38:18.401Z,19.19
2016-06-02T00:39:18.435Z,19.18
2016-06-02T00:40:18.859Z,19.19
2016-06-02T00:41:18.487Z,19.1
2016-06-02T00:42:18.504Z,19.11
2016-06-02T00:43:18.523Z,19.18
2016-06-02T00:44:18.557Z,19.14
2016-06-02T00:45:18.576Z,19.14
2016-06-02T00:46:18.609Z,19.19
2016-06-02T00:47:18.628Z,19.18
2016-06-02T00:48:18.646Z,19.13
2016-06-02T00:49:18.680Z,19.13
2016-06-02T00:50:18.714Z,19.19
2016-06-02T00:51:18.592Z,19.14
2016-06-02T00:52:18.751Z,19.21
2016-06-02T00:53:18.784Z,19.16
2016-06-02T00:54:18.662Z,19.14
2016-06-02T00:55:19.244Z,19.18
2016-06-02T00:56:18.871Z,19.16
2016-06-02T00:57:18.733Z,19.14
2016-06-02T00:58:18.907Z,19.14
2016-06-02T00:59:18.941Z,19.18
2016-06-02T01:00:18.803Z,19.14
2016-06-02T01:01:18.994Z,19.21
2016-06-02T01:02:19.012Z,19.14
2016-06-02T01:03:19.030Z,19.16
2016-06-02T01:04:19.049Z,19.22
2016-06-02T01:05:18.926Z,19.19
2016-06-02T01:06:19.101Z,19.16
2016-06-02T01:07:19.135Z,19.1
2016-06-02T01:08:19.012Z,19.16
2016-06-02T01:09:19.031Z,19.14
2016-06-02T01:10:19.080Z,19.18
2016-06-02T01:11:19.082Z,19.21
2016-06-02T01:12:19.257Z,19.14
2016-06-02T01:13:19.135Z,19.22
2016-06-02T01:14:19.310Z,19.16
2016-06-02T01:15:19.344Z,19.18
2016-06-02T01:16:19.378Z,19.18
2016-06-02T01:17:19.396Z,19.16
2016-06-02T01:18:19.415Z,19.18
2016-06-02T01:19:19.448Z,19.18
2016-06-02T01:20:19.498Z,19.18
2016-06-02T01:21:19.485Z,19.18
2016-06-02T01:22:19.362Z,19.14
2016-06-02T01:23:19.537Z,19.16
2016-06-02T01:24:19.415Z,19.18
2016-06-02T01:25:20.168Z,19.11
2016-06-02T01:26:19.623Z,19.19
2016-06-02T01:27:19.642Z,19.18
2016-06-02T01:28:19.676Z,19.19
2016-06-02T01:29:19.694Z,19.16
2016-06-02T01:30:19.572Z,19.16
2016-06-02T01:31:19.731Z,19.18
2016-06-02T01:32:19.780Z,19.19
2016-06-02T01:33:19.799Z,19.19
2016-06-02T01:34:19.817Z,19.19
2016-06-02T01:35:19.851Z,19.19
2016-06-02T01:36:19.869Z,19.18
2016-06-02T01:37:19.935Z,19.13
2016-06-02T01:38:19.952Z,19.14
2016-06-02T01:39:19.799Z,19.19
2016-06-02T01:40:20.224Z,19.16
2016-06-02T01:41:20.008Z,19.16
2016-06-02T01:42:20.026Z,19.13
2016-06-02T01:43:20.044Z,19.11
2016-06-02T01:44:20.079Z,19.1
2016-06-02T01:45:19.987Z,19.18
2016-06-02T01:46:20.131Z,19.16
2016-06-02T01:47:20.164Z,19.21
2016-06-02T01:48:20.167Z,19.18
2016-06-02T01:49:20.201Z,19.11
2016-06-02T01:50:20.234Z,19.14
2016-06-02T01:51:20.253Z,19.13
2016-06-02T01:52:20.287Z,19.21
2016-06-02T01:53:20.306Z,19.18
2016-06-02T01:54:20.323Z,19.19
2016-06-02T01:55:20.373Z,19.22
2016-06-02T01:56:20.219Z,19.19
2016-06-02T01:57:20.254Z,19.19
2016-06-02T01:58:20.443Z,19.19
2016-06-02T01:59:20.462Z,19.18
2016-06-02T02:00:20.480Z,19.11
2016-06-02T02:01:20.499Z,19.21
2016-06-02T02:02:20.532Z,19.19
2016-06-02T02:03:20.551Z,19.18
2016-06-02T02:04:20.429Z,19.18
2016-06-02T02:05:20.603Z,19.14
2016-06-02T02:06:20.621Z,19.19
2016-06-02T02:07:20.499Z,19.19
2016-06-02T02:08:20.689Z,19.18
2016-06-02T02:09:20.708Z,19.22
2016-06-02T02:10:21.414Z,19.16
2016-06-02T02:11:20.760Z,19.18
2016-06-02T02:12:20.779Z,19.18
2016-06-02T02:13:20.813Z,19.16
2016-06-02T02:14:20.831Z,19.19
2016-06-02T02:15:20.848Z,19.11
2016-06-02T02:16:20.726Z,19.16
2016-06-02T02:17:20.917Z,19.14
2016-06-02T02:18:20.935Z,19.13
2016-06-02T02:19:20.953Z,19.16
2016-06-02T02:20:21.018Z,19.19
2016-06-02T02:21:20.864Z,19.16
2016-06-02T02:22:21.040Z,19.19
2016-06-02T02:23:21.073Z,19.11
2016-06-02T02:24:20.936Z,19.11
2016-06-02T02:25:21.125Z,19.1
2016-06-02T02:26:21.145Z,19.07
2016-06-02T02:27:21.005Z,19.07
2016-06-02T02:28:21.196Z,19.16
2016-06-02T02:29:21.215Z,19.13
2016-06-02T02:30:21.092Z,19.11
2016-06-02T02:31:21.282Z,19.13
2016-06-02T02:32:21.160Z,19.08
2016-06-02T02:33:21.163Z,19.08
2016-06-02T02:34:21.369Z,19.11
2016-06-02T02:35:21.371Z,19.16
2016-06-02T02:36:21.390Z,19.07
2016-06-02T02:37:21.330Z,19.13
2016-06-02T02:38:21.286Z,19.07
2016-06-02T02:39:21.476Z,19.16
2016-06-02T02:40:22.384Z,19.1
2016-06-02T02:41:21.357Z,19.08
2016-06-02T02:42:21.546Z,19.11
2016-06-02T02:43:21.565Z,19.13
2016-06-02T02:44:21.442Z,19.11
2016-06-02T02:45:21.617Z,19.08
2016-06-02T02:46:21.651Z,19.11
2016-06-02T02:47:21.669Z,19.07
2016-06-02T02:48:21.704Z,19.11
2016-06-02T02:49:21.737Z,19.04
2016-06-02T02:50:21.583Z,19.1
2016-06-02T02:51:21.774Z,19.04
2016-06-02T02:52:21.808Z,19.07
2016-06-02T02:53:21.826Z,19.06
2016-06-02T02:54:21.844Z,19.06
2016-06-02T02:55:22.300Z,19.11
2016-06-02T02:56:21.912Z,19.06
2016-06-02T02:57:21.931Z,19.07
2016-06-02T02:58:21.792Z,19.04
2016-06-02T02:59:21.827Z,19.04
2016-06-02T03:00:21.845Z,19.07
2016-06-02T03:01:22.019Z,19.08
2016-06-02T03:02:22.053Z,19.07
2016-06-02T03:03:21.916Z,19.04
2016-06-02T03:04:22.106Z,19.06
2016-06-02T03:05:22.124Z,19.11
2016-06-02T03:06:22.157Z,19.1
2016-06-02T03:07:22.191Z,19.11
2016-06-02T03:08:22.194Z,19.06
2016-06-02T03:09:22.244Z,19.08
2016-06-02T03:10:22.903Z,19.08
2016-06-02T03:11:22.280Z,19.04
2016-06-02T03:12:22.299Z,19.06
2016-06-02T03:13:22.333Z,19.06
2016-06-02T03:14:22.383Z,19.11
2016-06-02T03:15:22.385Z,19.02
2016-06-02T03:16:22.404Z,19.07
2016-06-02T03:17:22.437Z,19.07
2016-06-02T03:18:22.456Z,19.02
2016-06-02T03:19:22.505Z,19.02
2016-06-02T03:20:22.351Z,19.07
2016-06-02T03:21:22.526Z,19
2016-06-02T03:22:22.576Z,19.07
2016-06-02T03:23:22.578Z,19.08
2016-06-02T03:24:22.612Z,19.11
2016-06-02T03:25:22.787Z,19
2016-06-02T03:26:22.508Z,19.13
2016-06-02T03:27:22.683Z,19.02
2016-06-02T03:28:22.701Z,19.11
2016-06-02T03:29:22.760Z,19.02
2016-06-02T03:30:22.647Z,19.11
2016-06-02T03:31:22.863Z,19.02
2016-06-02T03:32:22.766Z,19.11
2016-06-02T03:33:22.965Z,19.18
2016-06-02T03:34:22.993Z,19.08
2016-06-02T03:35:23.037Z,19.08
2016-06-02T03:36:23.065Z,19.11
2016-06-02T03:37:22.982Z,19.02
2016-06-02T03:38:23.135Z,19.07
2016-06-02T03:39:23.157Z,19
2016-06-02T03:40:23.803Z,19.1
2016-06-02T03:41:23.075Z,19.08
2016-06-02T03:42:23.253Z,19
2016-06-02T03:43:23.273Z,19.02
2016-06-02T03:44:23.308Z,19.1
2016-06-02T03:45:23.328Z,19.13
2016-06-02T03:46:23.348Z,19.13
2016-06-02T03:47:23.382Z,19.04
2016-06-02T03:48:23.403Z,19.02
2016-06-02T03:49:23.437Z,19.07
2016-06-02T03:50:23.315Z,19.08
2016-06-02T03:51:23.490Z,18.94
2016-06-02T03:52:23.508Z,19.16
2016-06-02T03:53:23.386Z,18.99
2016-06-02T03:54:23.561Z,19.11
2016-06-02T03:55:23.611Z,19.13
2016-06-02T03:56:23.614Z,19.04
2016-06-02T03:57:23.634Z,19.11
2016-06-02T03:58:23.668Z,19.04
2016-06-02T03:59:23.373Z,18.99
2016-06-02T04:00:23.720Z,19.11
2016-06-02T04:01:23.753Z,19.04
2016-06-02T04:02:23.616Z,19.02
2016-06-02T04:03:23.806Z,19.11
2016-06-02T04:04:23.668Z,19.14
2016-06-02T04:05:23.842Z,19
2016-06-02T04:06:23.705Z,19.13
2016-06-02T04:07:23.879Z,19
2016-06-02T04:08:23.773Z,19.02
2016-06-02T04:09:23.978Z,19
2016-06-02T04:10:23.809Z,18.98
2016-06-02T04:11:23.983Z,18.99
2016-06-02T04:12:24.017Z,19.07
2016-06-02T04:13:23.894Z,19.11
2016-06-02T04:14:24.069Z,18.99
2016-06-02T04:15:24.119Z,19.02
2016-06-02T04:16:24.122Z,19.08
2016-06-02T04:17:24.155Z,19.04
2016-06-02T04:18:24.174Z,19.07
2016-06-02T04:19:24.208Z,19.14
2016-06-02T04:20:24.226Z,19.11
2016-06-02T04:21:24.245Z,19.07
2016-06-02T04:22:24.123Z,19.08
2016-06-02T04:23:24.297Z,19.06
2016-06-02T04:24:24.174Z,19.07
2016-06-02T04:25:24.349Z,19
2016-06-02T04:26:24.368Z,19.11
2016-06-02T04:27:24.417Z,19.11
2016-06-02T04:28:24.420Z,19.08
2016-06-02T04:29:24.438Z,19.06
2016-06-02T04:30:24.473Z,18.99
2016-06-02T04:31:24.507Z,19.07
2016-06-02T04:32:24.540Z,19.1
2016-06-02T04:33:24.542Z,19.04
2016-06-02T04:34:24.576Z,18.99
2016-06-02T04:35:24.595Z,19.08
2016-06-02T04:36:24.628Z,19.08
2016-06-02T04:37:24.647Z,19.08
2016-06-02T04:38:24.681Z,19.11
2016-06-02T04:39:24.700Z,19.07
2016-06-02T04:40:24.733Z,19.06
2016-06-02T04:41:24.752Z,19.13
2016-06-02T04:42:24.786Z,19.11
2016-06-02T04:43:24.805Z,19.08
2016-06-02T04:44:24.838Z,19.1
2016-06-02T04:45:24.856Z,19.1
2016-06-02T04:46:24.718Z,19.16
2016-06-02T04:47:24.909Z,19.02
2016-06-02T04:48:24.943Z,19.11
2016-06-02T04:49:24.946Z,19.11
2016-06-02T04:50:24.823Z,19.08
2016-06-02T04:51:25.013Z,19.02
2016-06-02T04:52:25.031Z,19.06
2016-06-02T04:53:25.065Z,19.11
2016-06-02T04:54:25.084Z,19.06
2016-06-02T04:55:25.118Z,19.13
2016-06-02T04:56:25.135Z,19
2016-06-02T04:57:25.154Z,19.06
2016-06-02T04:58:25.188Z,19.06
2016-06-02T04:59:25.237Z,19.06
2016-06-02T05:00:25.240Z,19.08
2016-06-02T05:01:25.259Z,19.06
2016-06-02T05:02:25.277Z,18.98
2016-06-02T05:03:25.327Z,19
2016-06-02T05:04:25.329Z,19.1
2016-06-02T05:05:25.364Z,19.02
2016-06-02T05:06:25.381Z,18.99
2016-06-02T05:07:25.415Z,19.07
2016-06-02T05:08:25.277Z,19
2016-06-02T05:09:25.452Z,19.06
2016-06-02T05:10:25.486Z,19.07
2016-06-02T05:11:25.505Z,19.06
2016-06-02T05:12:25.522Z,19.07
2016-06-02T05:13:25.556Z,19.18
2016-06-02T05:14:25.731Z,19.06
2016-06-02T05:15:25.453Z,19.11
2016-06-02T05:16:25.643Z,19.02
2016-06-02T05:17:25.677Z,19.02
2016-06-02T05:18:25.679Z,19.06
2016-06-02T05:19:25.730Z,19.02
2016-06-02T05:20:25.747Z,19.11
2016-06-02T05:21:25.781Z,19.08
2016-06-02T05:22:25.785Z,19.07
2016-06-02T05:23:25.818Z,19.1
2016-06-02T05:24:31.040Z,19.08
2016-06-02T05:25:25.776Z,18.99
2016-06-02T05:26:25.576Z,18.98
2016-06-02T05:27:25.923Z,19.1
2016-06-02T05:28:25.785Z,19.07
2016-06-02T05:29:25.959Z,19.07
2016-06-02T05:30:25.993Z,19.16
2016-06-02T05:31:26.012Z,19.11
2016-06-02T05:32:26.029Z,19.1
2016-06-02T05:33:26.079Z,19.02
2016-06-02T05:34:26.082Z,19.13
2016-06-02T05:35:25.991Z,19.11
2016-06-02T05:36:26.134Z,19.08
2016-06-02T05:37:27.215Z,19.1
2016-06-02T05:38:26.203Z,19.13
2016-06-02T05:39:26.251Z,19.04
2016-06-02T05:40:26.301Z,19.06
2016-06-02T05:41:26.273Z,19.11
2016-06-02T05:42:26.306Z,19.13
2016-06-02T05:43:26.325Z,19.02
2016-06-02T05:44:26.343Z,19.08
2016-06-02T05:45:26.205Z,18.99
2016-06-02T05:46:26.394Z,19.02
2016-06-02T05:47:26.414Z,19.11
2016-06-02T05:48:26.291Z,19.18
2016-06-02T05:49:26.482Z,19.07
2016-06-02T05:50:26.516Z,19.08
2016-06-02T05:51:26.518Z,19.02
2016-06-02T05:52:26.552Z,19.02
2016-06-02T05:53:26.429Z,19.04
2016-06-02T05:54:26.605Z,19.02
2016-06-02T05:55:26.654Z,19.18
2016-06-02T05:56:26.641Z,19.13
2016-06-02T05:57:26.674Z,19.07
2016-06-02T05:58:26.584Z,19.07
2016-06-02T05:59:26.727Z,19.02
2016-06-02T06:00:26.777Z,19
2016-06-02T06:01:26.764Z,19.02
2016-06-02T06:02:26.642Z,19.08
2016-06-02T06:03:26.816Z,19.08
2016-06-02T06:04:26.850Z,19.06
2016-06-02T06:05:26.868Z,19
2016-06-02T06:06:26.902Z,18.99
2016-06-02T06:07:26.921Z,19
2016-06-02T06:08:26.970Z,19.04
2016-06-02T06:09:26.989Z,19.11
2016-06-02T06:10:27.007Z,19.06
2016-06-02T06:11:27.056Z,19.06
2016-06-02T06:12:27.059Z,19.07
2016-06-02T06:13:27.078Z,19.08
2016-06-02T06:14:27.095Z,19.19
2016-06-02T06:15:26.973Z,19.02
2016-06-02T06:16:27.008Z,19.11
2016-06-02T06:17:27.182Z,19.04
2016-06-02T06:18:27.200Z,19.07
2016-06-02T06:19:27.234Z,19.06
2016-06-02T06:20:27.253Z,19.02
2016-06-02T06:21:27.303Z,19.07
2016-06-02T06:22:27.320Z,19.07
2016-06-02T06:23:27.339Z,19.06
2016-06-02T06:24:27.358Z,19.08
2016-06-02T06:25:27.641Z,19.1
2016-06-02T06:26:27.253Z,19.19
2016-06-02T06:27:27.428Z,19.08
2016-06-02T06:28:27.290Z,19.07
2016-06-02T06:29:27.480Z,19.07
2016-06-02T06:30:27.514Z,19.11
2016-06-02T06:31:27.532Z,19.19
2016-06-02T06:32:27.566Z,19.07
2016-06-02T06:33:27.585Z,19.13
2016-06-02T06:34:27.618Z,19.1
2016-06-02T06:35:27.668Z,19.04
2016-06-02T06:36:27.671Z,19.08
2016-06-02T06:37:28.737Z,19.18
2016-06-02T06:38:27.739Z,19.08
2016-06-02T06:39:27.726Z,19.08
2016-06-02T06:40:27.837Z,19.1
2016-06-02T06:41:27.793Z,19.18
2016-06-02T06:42:27.812Z,19.19
2016-06-02T06:43:27.830Z,19.16
2016-06-02T06:44:27.864Z,19.18
2016-06-02T06:45:27.882Z,19.21
2016-06-02T06:46:27.901Z,19.18
2016-06-02T06:47:27.950Z,19.14
2016-06-02T06:48:27.953Z,19.21
2016-06-02T06:49:27.986Z,19.19
2016-06-02T06:50:28.021Z,19.16
2016-06-02T06:51:27.883Z,19.11
2016-06-02T06:52:28.088Z,19.13
2016-06-02T06:53:27.935Z,19.13
2016-06-02T06:54:28.125Z,19.18
2016-06-02T06:55:28.175Z,19.19
2016-06-02T06:56:28.162Z,19.25
2016-06-02T06:57:28.180Z,19.21
2016-06-02T06:58:28.057Z,19.21
2016-06-02T06:59:28.232Z,19.26
2016-06-02T07:00:28.266Z,19.23
2016-06-02T07:01:28.144Z,19.28
2016-06-02T07:02:28.318Z,19.29
2016-06-02T07:03:28.337Z,19.26
2016-06-02T07:04:28.371Z,19.31
2016-06-02T07:05:28.404Z,19.28
2016-06-02T07:06:28.423Z,19.26
2016-06-02T07:07:28.441Z,19.32
2016-06-02T07:08:28.319Z,19.32
2016-06-02T07:09:28.493Z,19.37
2016-06-02T07:10:28.528Z,19.41
2016-06-02T07:11:28.545Z,19.44
2016-06-02T07:12:28.565Z,19.46
2016-06-02T07:13:28.598Z,19.47
2016-06-02T07:14:28.475Z,19.37
2016-06-02T07:15:28.651Z,19.37
2016-06-02T07:16:28.669Z,19.48
2016-06-02T07:17:28.719Z,19.41
2016-06-02T07:18:28.753Z,19.46
2016-06-02T07:19:28.600Z,19.55
2016-06-02T07:20:28.772Z,19.58
2016-06-02T07:21:28.651Z,19.51
2016-06-02T07:22:28.826Z,19.44
2016-06-02T07:23:28.860Z,19.48
2016-06-02T07:24:28.722Z,19.51
2016-06-02T07:25:28.944Z,19.56
2016-06-02T07:26:28.914Z,19.58
2016-06-02T07:27:28.792Z,19.56
2016-06-02T07:28:28.827Z,19.58
2016-06-02T07:29:29.016Z,19.62
2016-06-02T07:30:29.019Z,19.58
2016-06-02T07:31:29.053Z,19.65
2016-06-02T07:32:29.446Z,19.66
2016-06-02T07:33:29.137Z,19.71
2016-06-02T07:34:29.202Z,19.73
2016-06-02T07:35:29.002Z,19.74
2016-06-02T07:36:29.176Z,19.69
2016-06-02T07:37:29.210Z,19.74
2016-06-02T07:38:29.228Z,19.68
2016-06-02T07:39:29.262Z,19.8
2016-06-02T07:40:29.624Z,19.78
2016-06-02T07:41:29.159Z,19.77
2016-06-02T07:42:29.332Z,19.8
2016-06-02T07:43:29.257Z,19.84
2016-06-02T07:44:29.384Z,19.8
2016-06-02T07:45:29.262Z,19.91
2016-06-02T07:46:29.437Z,19.8
2016-06-02T07:47:29.471Z,19.83
2016-06-02T07:48:29.490Z,19.87
2016-06-02T07:49:29.351Z,19.92
2016-06-02T07:50:29.542Z,19.91
2016-06-02T07:51:29.560Z,19.96
2016-06-02T07:52:29.594Z,19.87
2016-06-02T07:53:29.612Z,20.03
2016-06-02T07:54:29.678Z,20.01
2016-06-02T07:55:30.524Z,19.92
2016-06-02T07:56:29.699Z,19.95
2016-06-02T07:57:29.732Z,19.91
2016-06-02T07:58:29.750Z,19.98
2016-06-02T07:59:29.800Z,19.95
2016-06-02T08:00:29.788Z,19.91
2016-06-02T08:01:29.822Z,19.95
2016-06-02T08:02:29.855Z,20.08
2016-06-02T08:03:29.717Z,20.03
2016-06-02T08:04:29.907Z,19.99
2016-06-02T08:05:29.926Z,20.05
2016-06-02T08:06:29.803Z,20.01
2016-06-02T08:07:29.979Z,20.03
2016-06-02T08:08:29.856Z,20.17
2016-06-02T08:09:29.904Z,20.18
2016-06-02T08:10:30.065Z,20.21
2016-06-02T08:11:30.082Z,20.21
2016-06-02T08:12:29.959Z,20.21
2016-06-02T08:13:30.135Z,20.29
2016-06-02T08:14:30.168Z,20.29
2016-06-02T08:15:30.186Z,20.31
2016-06-02T08:16:30.205Z,20.36
2016-06-02T08:17:30.239Z,20.43
2016-06-02T08:18:30.117Z,20.42
2016-06-02T08:19:30.291Z,20.55
2016-06-02T08:20:30.170Z,20.58
2016-06-02T08:21:30.344Z,20.61
2016-06-02T08:22:30.378Z,20.64
2016-06-02T08:23:30.427Z,20.61
2016-06-02T08:24:30.430Z,20.66
2016-06-02T08:25:30.542Z,20.7
2016-06-02T08:26:30.483Z,20.74
2016-06-02T08:27:30.375Z,20.88
2016-06-02T08:28:30.535Z,20.87
2016-06-02T08:29:30.552Z,20.97
2016-06-02T08:30:30.586Z,20.87
2016-06-02T08:31:30.621Z,20.95
2016-06-02T08:32:30.639Z,20.97
2016-06-02T08:33:30.673Z,20.97
2016-06-02T08:34:30.535Z,21.01
2016-06-02T08:35:30.725Z,21.04
2016-06-02T08:36:30.588Z,21.01
2016-06-02T08:37:30.793Z,21.09
2016-06-02T08:38:30.654Z,21.14
2016-06-02T08:39:30.829Z,21.17
2016-06-02T08:40:31.098Z,21.19
2016-06-02T08:41:30.881Z,21.29
2016-06-02T08:42:30.915Z,21.22
2016-06-02T08:43:30.934Z,21.31
2016-06-02T08:44:30.967Z,21.34
2016-06-02T08:45:30.830Z,21.42
2016-06-02T08:46:31.020Z,21.38
2016-06-02T08:47:31.054Z,21.42
2016-06-02T08:48:30.931Z,21.43
2016-06-02T08:49:31.091Z,21.5
2016-06-02T08:50:31.156Z,21.46
2016-06-02T08:51:31.158Z,21.64
2016-06-02T08:52:31.209Z,21.62
2016-06-02T08:53:31.211Z,21.61
2016-06-02T08:54:31.480Z,21.61
2016-06-02T08:55:31.122Z,21.71
2016-06-02T08:56:31.281Z,21.72
2016-06-02T08:57:31.315Z,21.75
2016-06-02T08:58:31.349Z,21.82
2016-06-02T08:59:31.368Z,21.84
2016-06-02T09:00:31.402Z,21.83
2016-06-02T09:01:31.420Z,21.8
2016-06-02T09:02:31.454Z,21.92
2016-06-02T09:03:31.472Z,21.9
2016-06-02T09:04:31.506Z,21.99
2016-06-02T09:05:31.541Z,22
2016-06-02T09:06:31.590Z,21.92
2016-06-02T09:07:31.593Z,22.05
2016-06-02T09:08:31.627Z,22.09
2016-06-02T09:09:31.645Z,22.14
2016-06-02T09:10:31.569Z,22.15
2016-06-02T09:11:31.697Z,22.22
2016-06-02T09:12:31.731Z,22.27
2016-06-02T09:13:31.748Z,22.33
2016-06-02T09:14:31.783Z,22.31
2016-06-02T09:15:31.802Z,22.36
2016-06-02T09:16:31.835Z,22.39
2016-06-02T09:17:31.870Z,22.4
2016-06-02T09:18:31.887Z,22.46
2016-06-02T09:19:31.922Z,22.49
2016-06-02T09:20:31.940Z,22.54
2016-06-02T09:21:31.973Z,22.61
2016-06-02T09:22:32.009Z,22.65
2016-06-02T09:23:32.026Z,22.61
2016-06-02T09:24:31.904Z,22.58
2016-06-02T09:25:32.156Z,22.68
2016-06-02T09:26:32.111Z,22.65
2016-06-02T09:27:31.990Z,22.7
2016-06-02T09:28:32.165Z,22.77
2016-06-02T09:29:32.199Z,22.82
2016-06-02T09:30:32.217Z,22.88
2016-06-02T09:31:32.250Z,22.86
2016-06-02T09:32:32.269Z,22.86
2016-06-02T09:33:32.303Z,22.97
2016-06-02T09:34:32.321Z,22.9
2016-06-02T09:35:32.230Z,22.97
2016-06-02T09:36:32.389Z,22.94
2016-06-02T09:37:32.252Z,22.97
2016-06-02T09:38:32.441Z,23.1
2016-06-02T09:39:32.476Z,23.05
2016-06-02T09:40:35.962Z,23.05
2016-06-02T09:41:32.528Z,23.09
2016-06-02T09:42:32.405Z,23.19
2016-06-02T09:43:32.440Z,23.13
2016-06-02T09:44:32.614Z,23.17
2016-06-02T09:45:32.476Z,23.27
2016-06-02T09:46:32.509Z,23.22
2016-06-02T09:47:32.701Z,23.27
2016-06-02T09:48:32.734Z,23.39
2016-06-02T09:49:32.753Z,23.35
2016-06-02T09:50:32.787Z,23.43
2016-06-02T09:51:32.804Z,23.39
2016-06-02T09:52:32.698Z,23.51
2016-06-02T09:53:32.700Z,23.48
2016-06-02T09:54:33.579Z,23.5
2016-06-02T09:55:33.331Z,23.54
2016-06-02T09:56:32.787Z,23.6
2016-06-02T09:57:32.961Z,23.6
2016-06-02T09:58:32.995Z,23.55
2016-06-02T09:59:33.030Z,23.63
2016-06-02T10:00:33.048Z,23.55
2016-06-02T10:01:33.081Z,23.63
2016-06-02T10:02:33.116Z,23.55
2016-06-02T10:03:33.150Z,23.66
2016-06-02T10:04:33.168Z,23.55
2016-06-02T10:05:33.046Z,23.55
2016-06-02T10:06:33.220Z,23.54
2016-06-02T10:07:33.097Z,23.58
2016-06-02T10:08:33.132Z,23.55
2016-06-02T10:09:32.993Z,23.58
2016-06-02T10:10:33.372Z,23.57
2016-06-02T10:11:33.218Z,23.58
2016-06-02T10:12:33.376Z,23.54
2016-06-02T10:13:33.410Z,23.55
2016-06-02T10:14:33.288Z,23.54
2016-06-02T10:15:33.463Z,23.58
2016-06-02T10:16:33.528Z,23.55
2016-06-02T10:17:33.515Z,23.55
2016-06-02T10:18:33.548Z,23.58
2016-06-02T10:19:33.584Z,23.58
2016-06-02T10:20:33.601Z,23.55
2016-06-02T10:21:33.479Z,23.57
2016-06-02T10:22:33.670Z,23.58
2016-06-02T10:23:33.704Z,23.57
2016-06-02T10:24:33.722Z,23.57
2016-06-02T10:25:33.943Z,23.68
2016-06-02T10:26:33.773Z,23.66
2016-06-02T10:27:33.809Z,23.65
2016-06-02T10:28:33.528Z,23.65
2016-06-02T10:29:33.861Z,23.65
2016-06-02T10:30:33.878Z,23.55
2016-06-02T10:31:33.772Z,23.55
2016-06-02T10:32:33.946Z,23.6
2016-06-02T10:33:33.980Z,23.63
2016-06-02T10:34:33.999Z,23.6
2016-06-02T10:35:34.033Z,23.55
2016-06-02T10:36:34.050Z,23.61
2016-06-02T10:37:34.085Z,23.66
2016-06-02T10:38:34.103Z,23.58
2016-06-02T10:39:34.137Z,23.65
2016-06-02T10:40:33.874Z,23.66
2016-06-02T10:41:34.220Z,23.55
2016-06-02T10:42:34.223Z,23.55
2016-06-02T10:43:43.257Z,23.58
2016-06-02T10:44:34.276Z,23.61
2016-06-02T10:45:34.153Z,23.66
2016-06-02T10:46:34.327Z,23.55
2016-06-02T10:47:34.205Z,23.55
2016-06-02T10:48:34.240Z,23.69
2016-06-02T10:49:34.273Z,23.55
2016-06-02T10:50:34.448Z,23.61
2016-06-02T10:51:34.466Z,23.57
2016-06-02T10:52:34.501Z,23.61
2016-06-02T10:53:34.534Z,23.69
2016-06-02T10:54:34.568Z,23.68
2016-06-02T10:55:34.430Z,23.72
2016-06-02T10:56:34.604Z,23.75
2016-06-02T10:57:34.497Z,23.68
2016-06-02T10:58:34.704Z,23.72
2016-06-02T10:59:34.706Z,23.75
2016-06-02T11:00:34.740Z,23.75
2016-06-02T11:01:34.742Z,23.76
2016-06-02T11:02:34.792Z,23.72
2016-06-02T11:03:34.655Z,23.78
2016-06-02T11:04:34.830Z,23.72
2016-06-02T11:05:34.707Z,23.76
2016-06-02T11:06:34.897Z,23.78
2016-06-02T11:07:34.931Z,23.75
2016-06-02T11:08:34.794Z,23.76
2016-06-02T11:09:34.983Z,23.8
2016-06-02T11:10:36.048Z,23.93
2016-06-02T11:11:34.894Z,23.79
2016-06-02T11:12:35.069Z,23.8
2016-06-02T11:13:34.931Z,23.85
2016-06-02T11:14:34.966Z,23.87
2016-06-02T11:15:35.140Z,23.88
2016-06-02T11:16:35.174Z,23.85
2016-06-02T11:17:35.052Z,23.76
2016-06-02T11:18:35.227Z,23.94
2016-06-02T11:19:35.260Z,23.84
2016-06-02T11:20:35.278Z,23.87
2016-06-02T11:21:35.312Z,23.78
2016-06-02T11:22:35.190Z,23.83
2016-06-02T11:23:35.052Z,23.84
2016-06-02T11:24:35.523Z,23.88
2016-06-02T11:25:35.604Z,23.79
2016-06-02T11:26:35.450Z,23.85
2016-06-02T11:27:35.484Z,23.95
2016-06-02T11:28:35.394Z,23.88
2016-06-02T11:29:35.537Z,23.85
2016-06-02T11:30:35.556Z,23.9
2016-06-02T11:31:35.589Z,23.85
2016-06-02T11:32:35.622Z,23.91
2016-06-02T11:33:35.642Z,23.91
2016-06-02T11:34:35.675Z,23.93
2016-06-02T11:35:35.600Z,23.98
2016-06-02T11:36:35.587Z,23.97
2016-06-02T11:37:35.793Z,23.94
2016-06-02T11:38:35.796Z,24.02
2016-06-02T11:39:35.986Z,24.03
2016-06-02T11:40:35.926Z,24.03
2016-06-02T11:41:35.725Z,24.05
2016-06-02T11:42:35.744Z,24.06
2016-06-02T11:43:35.763Z,24.05
2016-06-02T11:44:35.796Z,23.98
2016-06-02T11:45:35.986Z,23.94
2016-06-02T11:46:36.005Z,24.12
2016-06-02T11:47:36.038Z,24.05
2016-06-02T11:48:36.057Z,24.08
2016-06-02T11:49:36.121Z,24.02
2016-06-02T11:50:36.124Z,24.05
2016-06-02T11:51:36.159Z,24.06
2016-06-02T11:52:36.177Z,24.08
2016-06-02T11:53:36.212Z,23.95
2016-06-02T11:54:36.245Z,24.08
2016-06-02T11:55:36.263Z,24.03
2016-06-02T11:56:36.298Z,24.06
2016-06-02T11:57:36.331Z,24.05
2016-06-02T11:58:36.381Z,24.02
2016-06-02T11:59:36.430Z,24.03
2016-06-02T12:00:36.246Z,24
2016-06-02T12:01:36.436Z,24.08
2016-06-02T12:02:36.454Z,24.1
2016-06-02T12:03:36.503Z,24.08
2016-06-02T12:04:36.506Z,24.06
2016-06-02T12:05:36.383Z,24.09
2016-06-02T12:06:36.574Z,24.1
2016-06-02T12:07:36.608Z,23.97
2016-06-02T12:08:36.470Z,24.03
2016-06-02T12:09:37.567Z,24.06
2016-06-02T12:10:37.007Z,24.03
2016-06-02T12:11:36.712Z,24.08
2016-06-02T12:12:36.591Z,24.05
2016-06-02T12:13:36.608Z,24.05
2016-06-02T12:14:36.799Z,23.98
2016-06-02T12:15:36.817Z,24.02
2016-06-02T12:16:36.851Z,24.03
2016-06-02T12:17:36.885Z,23.97
2016-06-02T12:18:36.903Z,23.95
2016-06-02T12:19:36.937Z,23.93
2016-06-02T12:20:36.987Z,23.93
2016-06-02T12:21:36.990Z,23.9
2016-06-02T12:22:37.007Z,23.91
2016-06-02T12:23:37.042Z,23.95
2016-06-02T12:24:37.248Z,23.93
2016-06-02T12:25:37.126Z,23.91
2016-06-02T12:26:37.128Z,23.91
2016-06-02T12:27:37.193Z,23.93
2016-06-02T12:28:37.181Z,23.9
2016-06-02T12:29:37.214Z,23.83
2016-06-02T12:30:37.248Z,23.94
2016-06-02T12:31:37.266Z,23.84
2016-06-02T12:32:37.301Z,23.94
2016-06-02T12:33:37.334Z,23.97
2016-06-02T12:34:37.362Z,23.95
2016-06-02T12:35:37.408Z,23.9
2016-06-02T12:36:37.501Z,23.83
2016-06-02T12:37:37.390Z,23.85
2016-06-02T12:38:37.437Z,23.85
2016-06-02T12:39:37.789Z,23.8
2016-06-02T12:40:37.707Z,23.83
2016-06-02T12:41:37.705Z,23.84
2016-06-02T12:42:37.749Z,23.91
2016-06-02T12:43:37.793Z,23.8
2016-06-02T12:44:37.819Z,23.85
2016-06-02T12:45:37.856Z,23.79
2016-06-02T12:46:37.879Z,23.78
2016-06-02T12:47:37.759Z,23.78
2016-06-02T12:48:37.952Z,23.83
2016-06-02T12:49:37.974Z,23.83
2016-06-02T12:50:37.853Z,23.78
2016-06-02T12:51:38.028Z,23.76
2016-06-02T12:52:38.094Z,23.75
2016-06-02T12:53:38.098Z,23.79
2016-06-02T12:54:38.508Z,23.75
2016-06-02T12:55:38.590Z,23.72